Time;durP1;ratioP1;P1;durP2;ratioP2;P2;SDS_P1;SDS_P2;PMS_P1;PMS_P2;Temp;Humidity;BMP_temperature;BMP_pressure;BME280_temperature;BME280_humidity;BME280_pressure;Samples;Min_cycle;Max_cycle;Signal;HPM_P1;HPM_P2
2023/09/29 00:01:00;;;;;;;;;;;;;;;-146.25;100.00;52206.00;2097806;28;19931;-65
2023/09/29 00:02:03;;;;;;;;;;;;;;;-146.25;100.00;52206.00;2096883;28;35262;-64
2023/09/29 00:03:07;;;;;;;;;;;;;;;-146.25;100.00;52199.91;2096871;28;33800;-65
2023/09/29 00:04:10;;;;;;;;;;;;;;;-146.25;100.00;52210.03;2096994;28;29817;-65
2023/09/29 00:05:11;;;;;;;;;;;;;;;-146.25;100.00;52234.38;2097082;28;36725;-64
2023/09/29 00:06:15;;;;;;;;;;;;;;;-146.25;100.00;52206.00;2097416;28;20798;-65
2023/09/29 00:07:17;;;;;;;;;;;;;;;-146.25;100.00;52250.59;2097190;28;30389;-65
2023/09/29 00:08:22;;;;;;;;;;;;;;;-146.25;100.00;52216.13;2096461;28;31325;-64
2023/09/29 00:09:28;;;;;;;;;;;;;;;-146.25;100.00;52222.22;2095802;28;36805;-64
2023/09/29 00:10:34;;;;;;;;;;;;;;;-146.25;100.00;52218.16;2096612;28;20778;-65
2023/09/29 00:11:36;;;;;;;;;;;;;;;-146.25;100.00;52224.25;2097490;28;20014;-63
2023/09/29 00:12:38;;;;;;;;;;;;;;;-146.25;100.00;52189.78;2096383;28;33725;-65
2023/09/29 00:13:40;;;;;;;;;;;;;;;-146.25;100.00;52210.03;2097006;28;30358;-64
2023/09/29 00:14:41;;;;;;;;;;;;;;;-146.25;100.00;52226.25;2096865;28;31736;-65
2023/09/29 00:15:43;;;;;;;;;;;;;;;-146.25;100.00;52208.03;2097020;28;34983;-64
2023/09/29 00:16:49;;;;;;;;;;;;;;;-146.25;100.00;52224.25;2096771;28;35853;-65
2023/09/29 00:17:51;;;;;;;;;;;;;;;-146.25;100.00;52240.47;2097965;28;20017;-65
2023/09/29 00:18:54;;;;;;;;;;;;;;;-146.25;100.00;52214.09;2097286;28;19932;-65
2023/09/29 00:19:56;;;;;;;;;;;;;;;-146.25;100.00;52238.44;2088514;28;20039;-65
2023/09/29 00:20:57;;;;;;;;;;;;;;;-146.25;100.00;52222.22;2087742;28;35609;-65
2023/09/29 00:21:59;;;;;;;;;;;;;;;-146.25;100.00;52197.88;2087768;28;37950;-64
2023/09/29 00:23:01;;;;;;;;;;;;;;;-146.25;100.00;52232.34;2087856;28;33752;-65
2023/09/29 00:24:04;;;;;;;;;;;;;;;-146.25;100.00;52222.22;2096908;28;36805;-64
2023/09/29 00:25:07;;;;;;;;;;;;;;;-146.25;100.00;52240.47;2096500;28;33985;-64
2023/09/29 00:26:09;;;;;;;;;;;;;;;-146.25;100.00;52238.44;2097965;28;19929;-65
2023/09/29 00:27:11;;;;;;;;;;;;;;;-146.25;100.00;52214.09;2087543;28;19925;-64
2023/09/29 00:28:16;;;;;;;;;;;;;;;-146.25;100.00;52234.38;2088674;28;26739;-65
2023/09/29 00:29:17;;;;;;;;;;;;;;;-146.25;100.00;52197.88;2096684;28;24080;-64
2023/09/29 00:30:19;;;;;;;;;;;;;;;-146.25;100.00;52201.94;2088145;28;19965;-65
2023/09/29 00:31:21;;;;;;;;;;;;;;;-146.25;100.00;52232.34;2079660;28;26878;-65
2023/09/29 00:32:23;;;;;;;;;;;;;;;-146.25;100.00;52208.03;2088051;28;32756;-65
2023/09/29 00:33:25;;;;;;;;;;;;;;;-146.25;100.00;52246.53;2096256;28;19925;-65
2023/09/29 00:34:27;;;;;;;;;;;;;;;-146.25;100.00;52183.69;2096629;28;25391;-64
2023/09/29 00:35:28;;;;;;;;;;;;;;;-146.25;100.00;52218.16;2097057;28;20032;-65
2023/09/29 00:36:32;;;;;;;;;;;;;;;-146.25;100.00;52218.16;2096927;28;29545;-64
2023/09/29 00:37:34;;;;;;;;;;;;;;;-146.25;100.00;52210.03;2097240;28;21234;-65
2023/09/29 00:38:36;;;;;;;;;;;;;;;-146.25;100.00;52226.25;2097560;28;22280;-64
2023/09/29 00:39:37;;;;;;;;;;;;;;;-146.25;100.00;52222.22;2095765;28;28992;-65
2023/09/29 00:40:40;;;;;;;;;;;;;;;-146.25;100.00;52197.88;2096655;28;19936;-65
2023/09/29 00:41:41;;;;;;;;;;;;;;;-146.25;100.00;52197.88;2096470;28;27757;-65
2023/09/29 00:42:49;;;;;;;;;;;;;;;-146.25;100.00;52195.84;2096600;28;19970;-64
2023/09/29 00:43:50;;;;;;;;;;;;;;;-146.25;100.00;52218.16;2096375;28;25086;-65
2023/09/29 00:44:55;;;;;;;;;;;;;;;-146.25;100.00;52208.03;2088516;28;19933;-65
2023/09/29 00:45:57;;;;;;;;;;;;;;;-146.25;100.00;52210.03;2088267;28;19925;-64
2023/09/29 00:46:59;;;;;;;;;;;;;;;-146.25;100.00;52222.22;2097204;28;29606;-65
2023/09/29 00:48:07;;;;;;;;;;;;;;;-146.25;100.00;52256.69;2097231;28;27149;-65
2023/09/29 00:49:09;;;;;;;;;;;;;;;-146.25;100.00;52210.03;2096036;28;25749;-64
2023/09/29 00:50:14;;;;;;;;;;;;;;;-146.25;100.00;52226.25;2087973;28;22609;-64
2023/09/29 00:51:15;;;;;;;;;;;;;;;-146.25;100.00;52193.81;2080715;28;19925;-65
2023/09/29 00:52:17;;;;;;;;;;;;;;;-146.25;100.00;52201.94;2087806;28;28824;-65
2023/09/29 00:53:20;;;;;;;;;;;;;;;-146.25;100.00;52206.00;2097069;28;26095;-65
2023/09/29 00:54:22;;;;;;;;;;;;;;;-146.25;100.00;52236.41;2095888;28;29455;-65
2023/09/29 00:55:29;;;;;;;;;;;;;;;-146.25;100.00;52208.03;2096254;28;29377;-65
2023/09/29 00:56:32;;;;;;;;;;;;;;;-146.25;100.00;52220.19;2096997;28;20699;-63
2023/09/29 00:57:34;;;;;;;;;;;;;;;-146.25;100.00;52212.06;2096558;28;20722;-64
2023/09/29 00:58:36;;;;;;;;;;;;;;;-146.25;100.00;52195.84;2088002;28;19918;-64
2023/09/29 00:59:40;;;;;;;;;;;;;;;-146.25;100.00;52201.94;2087885;28;30893;-65
2023/09/29 01:00:42;;;;;;;;;;;;;;;-146.25;100.00;52201.94;2096689;28;24489;-64
2023/09/29 01:01:47;;;;;;;;;;;;;;;-146.25;100.00;52185.72;2097097;28;19995;-66
2023/09/29 01:02:49;;;;;;;;;;;;;;;-146.25;100.00;52216.13;2095990;28;29385;-65
2023/09/29 01:03:51;;;;;;;;;;;;;;;-146.25;100.00;52203.97;2096429;28;29396;-65
2023/09/29 01:04:54;;;;;;;;;;;;;;;-146.25;100.00;52187.75;2096928;28;19928;-65
2023/09/29 01:05:56;;;;;;;;;;;;;;;-146.25;100.00;52189.78;2096881;28;34832;-65
2023/09/29 01:06:58;;;;;;;;;;;;;;;-146.25;100.00;52242.50;2097272;28;19933;-65
2023/09/29 01:07:59;;;;;;;;;;;;;;;-146.25;100.00;52218.16;2096873;28;27928;-65
2023/09/29 01:09:05;;;;;;;;;;;;;;;-146.25;100.00;52199.91;2096823;28;19924;-64
2023/09/29 01:10:09;;;;;;;;;;;;;;;-146.25;100.00;52212.06;2096388;28;19956;-65
2023/09/29 01:11:11;;;;;;;;;;;;;;;-146.25;100.00;52232.34;2096388;28;30367;-65
2023/09/29 01:12:27;;;;;;;;;;;;;;;-146.25;100.00;52216.13;2096666;28;23139;-65
2023/09/29 01:13:28;;;;;;;;;;;;;;;-146.25;100.00;52201.94;2096342;28;25862;-65
2023/09/29 01:14:32;;;;;;;;;;;;;;;-146.25;100.00;52191.81;2096815;28;20200;-64
2023/09/29 01:15:34;;;;;;;;;;;;;;;-146.25;100.00;52232.34;2096074;28;19936;-65
2023/09/29 01:16:41;;;;;;;;;;;;;;;-146.25;100.00;52220.19;2096811;28;19966;-65
2023/09/29 01:17:46;;;;;;;;;;;;;;;-146.25;100.00;52226.25;2097058;28;19916;-65
2023/09/29 01:18:48;;;;;;;;;;;;;;;-146.25;100.00;52195.84;2096791;28;25695;-65
2023/09/29 01:19:50;;;;;;;;;;;;;;;-146.25;100.00;52197.88;2096312;28;20928;-64
2023/09/29 01:20:52;;;;;;;;;;;;;;;-146.25;100.00;52181.66;2087992;28;19921;-65
2023/09/29 01:21:58;;;;;;;;;;;;;;;-146.25;100.00;52250.59;2080436;28;20792;-64
2023/09/29 01:23:03;;;;;;;;;;;;;;;-146.25;100.00;52230.31;2079318;28;27721;-66
2023/09/29 01:24:07;;;;;;;;;;;;;;;-146.25;100.00;52242.50;2087769;28;27546;-65
2023/09/29 01:25:10;;;;;;;;;;;;;;;-146.25;100.00;52173.56;2096594;28;26955;-65
2023/09/29 01:26:12;;;;;;;;;;;;;;;-146.25;100.00;52206.00;2097208;28;20067;-64
2023/09/29 01:27:14;;;;;;;;;;;;;;;-146.25;100.00;52230.31;2096412;28;30294;-64
2023/09/29 01:28:15;;;;;;;;;;;;;;;-146.25;100.00;52195.84;2096310;28;23572;-64
2023/09/29 01:29:17;;;;;;;;;;;;;;;-146.25;100.00;52236.41;2096059;28;26673;-64
2023/09/29 01:30:19;;;;;;;;;;;;;;;-146.25;100.00;52201.94;2096563;28;25976;-64
2023/09/29 01:31:20;;;;;;;;;;;;;;;-146.25;100.00;52216.13;2097132;28;19956;-67
2023/09/29 01:32:22;;;;;;;;;;;;;;;-146.25;100.00;52199.91;2096900;28;26791;-63
2023/09/29 01:33:24;;;;;;;;;;;;;;;-146.25;100.00;52201.94;2097546;28;19921;-65
2023/09/29 01:34:25;;;;;;;;;;;;;;;-146.25;100.00;52210.03;2096254;28;28951;-65
2023/09/29 01:35:27;;;;;;;;;;;;;;;-146.25;100.00;52220.19;2095642;28;30925;-65
2023/09/29 01:36:29;;;;;;;;;;;;;;;-146.25;100.00;52187.75;2096021;28;25734;-65
2023/09/29 01:37:34;;;;;;;;;;;;;;;-146.25;100.00;52206.00;2095922;28;30025;-66
2023/09/29 01:38:35;;;;;;;;;;;;;;;-146.25;100.00;52197.88;2096168;28;25031;-66
2023/09/29 01:39:37;;;;;;;;;;;;;;;-146.25;100.00;52228.28;2096761;28;25841;-64
2023/09/29 01:40:40;;;;;;;;;;;;;;;-146.25;100.00;52234.38;2096599;28;28305;-64
2023/09/29 01:41:43;;;;;;;;;;;;;;;-146.25;100.00;52210.03;2096416;28;26477;-62
2023/09/29 01:42:46;;;;;;;;;;;;;;;-146.25;100.00;52212.06;2095395;28;32692;-62
2023/09/29 01:43:48;;;;;;;;;;;;;;;-146.25;100.00;52197.88;2096187;28;19995;-66
2023/09/29 01:44:50;;;;;;;;;;;;;;;-146.25;100.00;52216.13;2096317;28;26346;-63
2023/09/29 01:45:51;;;;;;;;;;;;;;;-146.25;100.00;52216.13;2096823;28;22827;-66
2023/09/29 01:46:53;;;;;;;;;;;;;;;-146.25;100.00;52212.06;2096401;28;30462;-65
2023/09/29 01:47:54;;;;;;;;;;;;;;;-146.25;100.00;52141.13;2096852;28;25154;-62
2023/09/29 01:48:59;;;;;;;;;;;;;;;-146.25;100.00;52189.78;2095967;28;23449;-65
2023/09/29 01:50:01;;;;;;;;;;;;;;;-146.25;100.00;52189.78;2095628;28;30081;-64
2023/09/29 01:51:02;;;;;;;;;;;;;;;-146.25;100.00;52234.38;2096991;28;21731;-64
2023/09/29 01:52:04;;;;;;;;;;;;;;;-146.25;100.00;52193.81;2096697;28;21755;-64
2023/09/29 01:53:07;;;;;;;;;;;;;;;-146.25;100.00;52214.09;2097514;28;19932;-65
2023/09/29 01:54:11;;;;;;;;;;;;;;;-146.25;100.00;52199.91;2098035;28;34033;-67
2023/09/29 01:55:16;;;;;;;;;;;;;;;-146.25;100.00;52214.09;2098160;28;27711;-64
2023/09/29 01:56:17;;;;;;;;;;;;;;;-146.25;100.00;52226.25;2097178;28;33319;-65
2023/09/29 01:57:19;;;;;;;;;;;;;;;-146.25;100.00;52206.00;2097214;28;20086;-65
2023/09/29 01:58:21;;;;;;;;;;;;;;;-146.25;100.00;52197.88;2097603;28;19936;-65
2023/09/29 01:59:22;;;;;;;;;;;;;;;-146.25;100.00;52189.78;2089073;28;19933;-65
2023/09/29 02:00:28;;;;;;;;;;;;;;;-146.25;100.00;52220.19;2089066;28;19933;-65
2023/09/29 02:01:35;;;;;;;;;;;;;;;-146.25;100.00;52165.44;2097204;28;28394;-65
2023/09/29 02:02:36;;;;;;;;;;;;;;;-146.25;100.00;52214.09;2098267;28;27621;-65
2023/09/29 02:03:38;;;;;;;;;;;;;;;-146.25;100.00;52226.25;2097693;28;33591;-65
2023/09/29 02:04:40;;;;;;;;;;;;;;;-146.25;100.00;52252.63;2098086;28;24365;-64
2023/09/29 02:05:42;;;;;;;;;;;;;;;-146.25;100.00;52212.06;2097821;28;31728;-65
2023/09/29 02:06:44;;;;;;;;;;;;;;;-146.25;100.00;52185.72;2097782;28;25971;-65
2023/09/29 02:07:47;;;;;;;;;;;;;;;-146.25;100.00;52201.94;2098320;28;20542;-64
2023/09/29 02:08:48;;;;;;;;;;;;;;;-146.25;100.00;52197.88;2098366;28;19930;-64
2023/09/29 02:09:51;;;;;;;;;;;;;;;-146.25;100.00;52222.22;2097828;28;19931;-64
2023/09/29 02:10:53;;;;;;;;;;;;;;;-146.25;100.00;52197.88;2098481;28;19928;-65
2023/09/29 02:11:56;;;;;;;;;;;;;;;-146.25;100.00;52222.22;2097242;28;19932;-64
2023/09/29 02:12:59;;;;;;;;;;;;;;;-146.25;100.00;52165.44;2089009;28;22211;-63
2023/09/29 02:14:04;;;;;;;;;;;;;;;-146.25;100.00;52201.94;2081130;28;19926;-64
2023/09/29 02:15:07;;;;;;;;;;;;;;;-146.25;100.00;52212.06;2081453;28;20791;-64
2023/09/29 02:16:12;;;;;;;;;;;;;;;-146.25;100.00;52163.41;2081211;28;20052;-64
2023/09/29 02:17:15;;;;;;;;;;;;;;;-146.25;100.00;52214.09;2089306;28;20988;-65
2023/09/29 02:18:17;;;;;;;;;;;;;;;-146.25;100.00;52266.81;2089654;28;19979;-65
2023/09/29 02:19:20;;;;;;;;;;;;;;;-146.25;100.00;52197.88;2072681;28;19918;-65
2023/09/29 02:20:30;;;;;;;;;;;;;;;-146.25;100.00;52189.78;2081240;28;19932;-63
2023/09/29 02:21:32;;;;;;;;;;;;;;;-146.25;100.00;52197.88;2097864;28;19929;-63
2023/09/29 02:22:36;;;;;;;;;;;;;;;-146.25;100.00;52212.06;2088881;28;19936;-64
2023/09/29 02:23:38;;;;;;;;;;;;;;;-146.25;100.00;52228.28;2080891;28;24122;-62
2023/09/29 02:24:40;;;;;;;;;;;;;;;-146.25;100.00;52181.66;2081037;28;19926;-65
2023/09/29 02:25:44;;;;;;;;;;;;;;;-146.25;100.00;52199.91;2088722;28;27844;-65
2023/09/29 02:26:46;;;;;;;;;;;;;;;-146.25;100.00;52228.28;2089358;28;20071;-66
2023/09/29 02:27:48;;;;;;;;;;;;;;;-146.25;100.00;52210.03;2088319;28;31151;-65
2023/09/29 02:28:49;;;;;;;;;;;;;;;-146.25;100.00;52232.34;2098151;28;23443;-66
2023/09/29 02:29:51;;;;;;;;;;;;;;;-146.25;100.00;52256.69;2088832;28;20710;-65
2023/09/29 02:30:54;;;;;;;;;;;;;;;-146.25;100.00;52181.66;2089226;28;20821;-65
2023/09/29 02:31:56;;;;;;;;;;;;;;;-146.25;100.00;52220.19;2097393;28;31070;-66
2023/09/29 02:32:57;;;;;;;;;;;;;;;-146.25;100.00;52234.38;2097278;28;21393;-66
2023/09/29 02:34:01;;;;;;;;;;;;;;;-146.25;100.00;52218.16;2097229;28;26327;-65
2023/09/29 02:35:03;;;;;;;;;;;;;;;-146.25;100.00;52210.03;2088572;28;22608;-65
2023/09/29 02:36:07;;;;;;;;;;;;;;;-146.25;100.00;52187.75;2088607;28;24076;-66
2023/09/29 02:37:09;;;;;;;;;;;;;;;-146.25;100.00;52193.81;2097439;28;25675;-65
2023/09/29 02:38:11;;;;;;;;;;;;;;;-146.25;100.00;52201.94;2097069;28;29697;-65
2023/09/29 02:39:15;;;;;;;;;;;;;;;-146.25;100.00;52189.78;2098001;28;19928;-66
2023/09/29 02:40:19;;;;;;;;;;;;;;;-146.25;100.00;52230.31;2089312;28;24135;-65
2023/09/29 02:41:21;;;;;;;;;;;;;;;-146.25;100.00;52214.09;2088911;28;27226;-65
2023/09/29 02:42:22;;;;;;;;;;;;;;;-146.25;100.00;52193.81;2097204;28;24261;-65
2023/09/29 02:43:24;;;;;;;;;;;;;;;-146.25;100.00;52262.75;2097550;28;26978;-65
2023/09/29 02:44:28;;;;;;;;;;;;;;;-146.25;100.00;52214.09;2097059;28;31052;-66
2023/09/29 02:45:31;;;;;;;;;;;;;;;-146.25;100.00;52218.16;2096851;28;30942;-63
2023/09/29 02:46:35;;;;;;;;;;;;;;;-146.25;100.00;52218.16;2096602;28;28112;-64
2023/09/29 02:47:41;;;;;;;;;;;;;;;-146.25;100.00;52230.31;2098023;28;19928;-64
2023/09/29 02:48:45;;;;;;;;;;;;;;;-146.25;100.00;52210.03;2096452;28;19928;-63
2023/09/29 02:49:50;;;;;;;;;;;;;;;-146.25;100.00;52203.97;2096747;28;26410;-64
2023/09/29 02:50:55;;;;;;;;;;;;;;;-146.25;100.00;52222.22;2097107;28;20626;-64
2023/09/29 02:51:56;;;;;;;;;;;;;;;-146.25;100.00;52214.09;2097508;28;29372;-65
2023/09/29 02:52:58;;;;;;;;;;;;;;;-146.25;100.00;52222.22;2097731;28;19925;-64
2023/09/29 02:54:00;;;;;;;;;;;;;;;-146.25;100.00;52218.16;2088170;28;33891;-64
2023/09/29 02:55:05;;;;;;;;;;;;;;;-146.25;100.00;52179.63;2088490;28;27568;-63
2023/09/29 02:56:10;;;;;;;;;;;;;;;-146.25;100.00;52173.56;2098065;28;27566;-64
2023/09/29 02:57:14;;;;;;;;;;;;;;;-146.25;100.00;52228.28;2096463;28;30139;-64
2023/09/29 02:58:17;;;;;;;;;;;;;;;-146.25;100.00;52218.16;2088656;28;19925;-64
2023/09/29 02:59:20;;;;;;;;;;;;;;;-146.25;100.00;52214.09;2088375;28;34082;-64
2023/09/29 03:00:23;;;;;;;;;;;;;;;-146.25;100.00;52212.06;2097071;28;28528;-64
2023/09/29 03:01:26;;;;;;;;;;;;;;;-146.25;100.00;52216.13;2096776;28;27779;-63
2023/09/29 03:02:27;;;;;;;;;;;;;;;-146.25;100.00;52220.19;2098229;28;27987;-64
2023/09/29 03:03:29;;;;;;;;;;;;;;;-146.25;100.00;52226.25;2096189;28;20449;-63
2023/09/29 03:04:31;;;;;;;;;;;;;;;-146.25;100.00;52193.81;2088030;28;34863;-64
2023/09/29 03:05:32;;;;;;;;;;;;;;;-146.25;100.00;52195.84;2088323;28;31276;-64
2023/09/29 03:06:34;;;;;;;;;;;;;;;-146.25;100.00;52214.09;2096933;28;24153;-64
2023/09/29 03:07:36;;;;;;;;;;;;;;;-146.25;100.00;52208.03;2096401;28;27214;-65
2023/09/29 03:08:39;;;;;;;;;;;;;;;-146.25;100.00;52201.94;2097964;28;20291;-64
2023/09/29 03:09:41;;;;;;;;;;;;;;;-146.25;100.00;52210.03;2087806;28;32749;-66
2023/09/29 03:10:43;;;;;;;;;;;;;;;-146.25;100.00;52187.75;2080269;28;32252;-65
2023/09/29 03:11:48;;;;;;;;;;;;;;;-146.25;100.00;52230.31;2088221;28;32249;-65
2023/09/29 03:12:56;;;;;;;;;;;;;;;-146.25;100.00;52238.44;2097054;28;20252;-64
2023/09/29 03:14:00;;;;;;;;;;;;;;;-146.25;100.00;52191.81;2097143;28;20055;-65
2023/09/29 03:15:04;;;;;;;;;;;;;;;-146.25;100.00;52214.09;2088990;28;19929;-64
2023/09/29 03:16:07;;;;;;;;;;;;;;;-146.25;100.00;52201.94;2088595;28;19932;-65
2023/09/29 03:17:09;;;;;;;;;;;;;;;-146.25;100.00;52210.03;2097238;28;20266;-64
2023/09/29 03:18:13;;;;;;;;;;;;;;;-146.25;100.00;52199.91;2095999;28;34164;-64
2023/09/29 03:19:15;;;;;;;;;;;;;;;-146.25;100.00;52238.44;2097490;28;19929;-64
2023/09/29 03:20:19;;;;;;;;;;;;;;;-146.25;100.00;52218.16;2097328;28;29317;-64
2023/09/29 03:21:23;;;;;;;;;;;;;;;-146.25;100.00;52212.06;2098037;28;19920;-64
2023/09/29 03:22:25;;;;;;;;;;;;;;;-146.25;100.00;52216.13;2097398;28;26937;-65
2023/09/29 03:23:28;;;;;;;;;;;;;;;-146.25;100.00;52191.81;2097795;28;26991;-65
2023/09/29 03:24:29;;;;;;;;;;;;;;;-146.25;100.00;52238.44;2097244;28;32645;-64
2023/09/29 03:25:32;;;;;;;;;;;;;;;-146.25;100.00;52228.28;2097818;28;28464;-65
2023/09/29 03:26:36;;;;;;;;;;;;;;;-146.25;100.00;52238.44;2096780;28;35941;-64
2023/09/29 03:27:39;;;;;;;;;;;;;;;-146.25;100.00;52228.28;2095822;28;30471;-64
2023/09/29 03:28:41;;;;;;;;;;;;;;;-146.25;100.00;52262.75;2096523;28;26081;-66
2023/09/29 03:29:43;;;;;;;;;;;;;;;-146.25;100.00;52201.94;2097186;28;34735;-64
2023/09/29 03:30:44;;;;;;;;;;;;;;;-146.25;100.00;52216.13;2096880;28;36335;-64
2023/09/29 03:31:47;;;;;;;;;;;;;;;-146.25;100.00;52238.44;2097195;28;34149;-65
2023/09/29 03:32:48;;;;;;;;;;;;;;;-146.25;100.00;52226.25;2096804;28;38199;-65
2023/09/29 03:33:52;;;;;;;;;;;;;;;-146.25;100.00;52230.31;2097194;28;29630;-64
2023/09/29 03:34:53;;;;;;;;;;;;;;;-146.25;100.00;52208.03;2096210;28;37967;-64
2023/09/29 03:35:55;;;;;;;;;;;;;;;-146.25;100.00;52216.13;2096826;28;36894;-64
2023/09/29 03:36:57;;;;;;;;;;;;;;;-146.25;100.00;52191.81;2096870;28;37047;-64
2023/09/29 03:38:05;;;;;;;;;;;;;;;-146.25;100.00;52210.03;2097939;28;19928;-64
2023/09/29 03:39:07;;;;;;;;;;;;;;;-146.25;100.00;52228.28;2096781;28;38896;-64
2023/09/29 03:40:10;;;;;;;;;;;;;;;-146.25;100.00;52222.22;2097146;28;36808;-64
2023/09/29 03:41:15;;;;;;;;;;;;;;;-146.25;100.00;52214.09;2097370;28;20915;-65
2023/09/29 03:42:16;;;;;;;;;;;;;;;-146.25;100.00;52228.28;2096343;28;39237;-65
2023/09/29 03:43:19;;;;;;;;;;;;;;;-146.25;100.00;52169.50;2097527;28;19929;-66
2023/09/29 03:44:23;;;;;;;;;;;;;;;-146.25;100.00;52197.88;2097315;28;34377;-66
2023/09/29 03:45:26;;;;;;;;;;;;;;;-146.25;100.00;52201.94;2096646;28;34240;-65
2023/09/29 03:46:29;;;;;;;;;;;;;;;-146.25;100.00;52193.81;2097067;28;36847;-64
2023/09/29 03:47:31;;;;;;;;;;;;;;;-146.25;100.00;52226.25;2097116;28;31913;-64
2023/09/29 03:48:33;;;;;;;;;;;;;;;-146.25;100.00;52240.47;2096928;28;37043;-65
2023/09/29 03:49:35;;;;;;;;;;;;;;;-146.25;100.00;52214.09;2096577;28;34558;-65
2023/09/29 03:50:41;;;;;;;;;;;;;;;-146.25;100.00;52212.06;2096788;28;38336;-64
2023/09/29 03:51:43;;;;;;;;;;;;;;;-146.25;100.00;52206.00;2097074;28;37043;-64
2023/09/29 03:52:45;;;;;;;;;;;;;;;-146.25;100.00;52238.44;2096907;28;36136;-64
2023/09/29 03:53:48;;;;;;;;;;;;;;;-146.25;100.00;52214.09;2096856;28;32595;-64
2023/09/29 03:54:50;;;;;;;;;;;;;;;-146.25;100.00;52169.50;2096460;28;38753;-65
2023/09/29 03:55:52;;;;;;;;;;;;;;;-146.25;100.00;52214.09;2096631;28;38468;-65
2023/09/29 03:56:54;;;;;;;;;;;;;;;-146.25;100.00;52181.66;2097584;28;19929;-66
2023/09/29 03:57:55;;;;;;;;;;;;;;;-146.25;100.00;52175.56;2096475;28;34747;-64
2023/09/29 03:58:58;;;;;;;;;;;;;;;-146.25;100.00;52226.25;2097316;28;36533;-65
2023/09/29 03:59:59;;;;;;;;;;;;;;;-146.25;100.00;52218.16;2096892;28;36524;-63
2023/09/29 04:01:02;;;;;;;;;;;;;;;-146.25;100.00;52262.75;2096738;28;35490;-64
2023/09/29 04:02:04;;;;;;;;;;;;;;;-146.25;100.00;52222.22;2096556;28;37519;-64
2023/09/29 04:03:07;;;;;;;;;;;;;;;-146.25;100.00;52230.31;2097067;28;32596;-65
2023/09/29 04:04:08;;;;;;;;;;;;;;;-146.25;100.00;52222.22;2095767;28;40039;-64
2023/09/29 04:05:11;;;;;;;;;;;;;;;-146.25;100.00;52191.81;2096141;28;34774;-64
2023/09/29 04:06:12;;;;;;;;;;;;;;;-146.25;100.00;52206.00;2096710;28;37944;-64
2023/09/29 04:07:15;;;;;;;;;;;;;;;-146.25;100.00;52193.81;2096891;28;36593;-65
2023/09/29 04:08:17;;;;;;;;;;;;;;;-146.25;100.00;52185.72;2096658;28;33927;-64
2023/09/29 04:09:20;;;;;;;;;;;;;;;-146.25;100.00;52234.38;2097401;28;36907;-65
2023/09/29 04:10:22;;;;;;;;;;;;;;;-146.25;100.00;52191.81;2097438;28;19988;-65
2023/09/29 04:11:26;;;;;;;;;;;;;;;-146.25;100.00;52212.06;2097261;28;31958;-65
2023/09/29 04:12:30;;;;;;;;;;;;;;;-146.25;100.00;52187.75;2096281;28;37402;-64
2023/09/29 04:13:32;;;;;;;;;;;;;;;-146.25;100.00;52234.38;2096904;28;35205;-64
2023/09/29 04:14:33;;;;;;;;;;;;;;;-146.25;100.00;52236.41;2096045;28;35180;-65
2023/09/29 04:15:38;;;;;;;;;;;;;;;-146.25;100.00;52201.94;2097419;28;19936;-64
2023/09/29 04:16:41;;;;;;;;;;;;;;;-146.25;100.00;52238.44;2096774;28;33153;-64
2023/09/29 04:17:43;;;;;;;;;;;;;;;-146.25;100.00;52222.22;2096616;28;37516;-64
2023/09/29 04:18:47;;;;;;;;;;;;;;;-146.25;100.00;52183.69;2096336;28;35575;-64
2023/09/29 04:19:49;;;;;;;;;;;;;;;-146.25;100.00;52224.25;2096863;28;33704;-64
2023/09/29 04:20:53;;;;;;;;;;;;;;;-146.25;100.00;52193.81;2097203;28;20811;-64
2023/09/29 04:21:55;;;;;;;;;;;;;;;-146.25;100.00;52232.34;2096833;28;33489;-65
2023/09/29 04:22:56;;;;;;;;;;;;;;;-146.25;100.00;52234.38;2096714;28;34443;-64
2023/09/29 04:23:58;;;;;;;;;;;;;;;-146.25;100.00;52236.41;2097148;28;31947;-66
2023/09/29 04:25:00;;;;;;;;;;;;;;;-146.25;100.00;52201.94;2096468;28;35726;-66
2023/09/29 04:26:02;;;;;;;;;;;;;;;-146.25;100.00;52185.72;2096700;28;34155;-65
2023/09/29 04:27:03;;;;;;;;;;;;;;;-146.25;100.00;52212.06;2096571;28;34658;-67
2023/09/29 04:28:05;;;;;;;;;;;;;;;-146.25;100.00;52201.94;2096514;28;35394;-64
2023/09/29 04:29:07;;;;;;;;;;;;;;;-146.25;100.00;52210.03;2096540;28;34584;-63
2023/09/29 04:30:09;;;;;;;;;;;;;;;-146.25;100.00;52230.31;2096702;28;35624;-64
2023/09/29 04:31:14;;;;;;;;;;;;;;;-146.25;100.00;52189.78;2096037;28;39026;-65
2023/09/29 04:32:17;;;;;;;;;;;;;;;-146.25;100.00;52226.25;2097228;28;34698;-65
2023/09/29 04:33:19;;;;;;;;;;;;;;;-146.25;100.00;52230.31;2096758;28;29998;-64
2023/09/29 04:34:21;;;;;;;;;;;;;;;-146.25;100.00;52210.03;2097277;28;20030;-64
2023/09/29 04:35:22;;;;;;;;;;;;;;;-146.25;100.00;52210.03;2096464;28;33858;-63
2023/09/29 04:36:24;;;;;;;;;;;;;;;-146.25;100.00;52214.09;2096672;28;36334;-64
2023/09/29 04:37:25;;;;;;;;;;;;;;;-146.25;100.00;52248.56;2096374;28;36214;-64
2023/09/29 04:38:27;;;;;;;;;;;;;;;-146.25;100.00;52220.19;2096918;28;36168;-64
2023/09/29 04:39:29;;;;;;;;;;;;;;;-146.25;100.00;52212.06;2096566;28;32163;-64
2023/09/29 04:40:30;;;;;;;;;;;;;;;-146.25;100.00;52274.94;2096927;28;32886;-64
2023/09/29 04:41:32;;;;;;;;;;;;;;;-146.25;100.00;52220.19;2096646;28;32307;-64
2023/09/29 04:42:34;;;;;;;;;;;;;;;-146.25;100.00;52199.91;2097354;28;19921;-64
2023/09/29 04:43:36;;;;;;;;;;;;;;;-146.25;100.00;52218.16;2096288;28;38062;-65
2023/09/29 04:44:38;;;;;;;;;;;;;;;-146.25;100.00;52169.50;2097342;28;20838;-64
2023/09/29 04:45:39;;;;;;;;;;;;;;;-146.25;100.00;52206.00;2096299;28;33923;-65
2023/09/29 04:46:42;;;;;;;;;;;;;;;-146.25;100.00;52222.22;2096641;28;32172;-65
2023/09/29 04:47:44;;;;;;;;;;;;;;;-146.25;100.00;52232.34;2096397;28;34540;-65
2023/09/29 04:48:45;;;;;;;;;;;;;;;-146.25;100.00;52228.28;2096590;28;20794;-64
2023/09/29 04:49:49;;;;;;;;;;;;;;;-146.25;100.00;52181.66;2095669;28;38781;-65
2023/09/29 04:50:52;;;;;;;;;;;;;;;-146.25;100.00;52203.97;2097754;28;19928;-64
2023/09/29 04:51:54;;;;;;;;;;;;;;;-146.25;100.00;52250.59;2096228;28;38515;-64
2023/09/29 04:52:58;;;;;;;;;;;;;;;-146.25;100.00;52193.81;2096527;28;39574;-64
2023/09/29 04:54:00;;;;;;;;;;;;;;;-146.25;100.00;52222.22;2096729;28;36964;-64
2023/09/29 04:55:02;;;;;;;;;;;;;;;-146.25;100.00;52203.97;2096332;28;35684;-64
2023/09/29 04:56:03;;;;;;;;;;;;;;;-146.25;100.00;52214.09;2096450;28;34423;-65
2023/09/29 04:57:05;;;;;;;;;;;;;;;-146.25;100.00;52191.81;2096892;28;25778;-66
2023/09/29 04:58:09;;;;;;;;;;;;;;;-146.25;100.00;52212.06;2096141;28;38769;-65
2023/09/29 04:59:10;;;;;;;;;;;;;;;-146.25;100.00;52218.16;2096516;28;34514;-65
2023/09/29 05:00:12;;;;;;;;;;;;;;;-146.25;100.00;52244.50;2096362;28;38257;-66
2023/09/29 05:01:17;;;;;;;;;;;;;;;-146.25;100.00;52201.94;2096762;28;34912;-65
2023/09/29 05:02:19;;;;;;;;;;;;;;;-146.25;100.00;52252.63;2096361;28;36572;-65
2023/09/29 05:03:21;;;;;;;;;;;;;;;-146.25;100.00;52226.25;2096740;28;38644;-64
2023/09/29 05:04:25;;;;;;;;;;;;;;;-146.25;100.00;52214.09;2097081;28;19925;-65
2023/09/29 05:05:26;;;;;;;;;;;;;;;-146.25;100.00;52218.16;2096050;28;35281;-65
2023/09/29 05:06:30;;;;;;;;;;;;;;;-146.25;100.00;52226.25;2096690;28;20870;-64
2023/09/29 05:07:32;;;;;;;;;;;;;;;-146.25;100.00;52250.59;2096813;28;35131;-65
2023/09/29 05:08:36;;;;;;;;;;;;;;;-146.25;100.00;52208.03;2096129;28;38425;-65
2023/09/29 05:09:37;;;;;;;;;;;;;;;-146.25;100.00;52240.47;2096591;28;35709;-65
2023/09/29 05:10:39;;;;;;;;;;;;;;;-146.25;100.00;52226.25;2096018;28;36750;-65
2023/09/29 05:11:41;;;;;;;;;;;;;;;-146.25;100.00;52226.25;2096872;28;35952;-65
2023/09/29 05:12:45;;;;;;;;;;;;;;;-146.25;100.00;52195.84;2096095;28;35364;-65
2023/09/29 05:13:50;;;;;;;;;;;;;;;-146.25;100.00;52201.94;2096701;28;36797;-65
2023/09/29 05:14:54;;;;;;;;;;;;;;;-146.25;100.00;52214.09;2096298;28;32038;-65